createdAt,value
2019-01-05T00:00:42.834Z,0.00
2019-01-05T00:01:42.821Z,0.00
2019-01-05T00:02:42.814Z,0.00
2019-01-05T00:03:42.798Z,0.00
2019-01-05T00:04:42.787Z,0.00
2019-01-05T00:05:42.777Z,0.00
2019-01-05T00:06:42.770Z,0.00
2019-01-05T00:07:42.768Z,0.00
2019-01-05T00:08:42.750Z,0.00
2019-01-05T00:09:42.733Z,0.00
2019-01-05T00:10:42.722Z,0.00
2019-01-05T00:11:42.712Z,0.00
2019-01-05T00:12:42.699Z,0.00
2019-01-05T00:13:42.690Z,0.00
2019-01-05T00:14:42.687Z,0.00
2019-01-05T00:15:42.674Z,0.00
2019-01-05T00:16:42.665Z,0.00
2019-01-05T00:17:42.649Z,0.00
2019-01-05T00:18:42.636Z,0.00
2019-01-05T00:19:42.625Z,0.00
2019-01-05T00:20:42.611Z,0.00
2019-01-05T00:21:42.605Z,0.00
2019-01-05T00:22:43.856Z,0.00
2019-01-05T00:23:42.580Z,0.00
2019-01-05T00:24:42.569Z,0.00
2019-01-05T00:25:42.560Z,0.00
2019-01-05T00:26:42.546Z,0.00
2019-01-05T00:27:42.534Z,0.00
2019-01-05T00:28:42.524Z,0.00
2019-01-05T00:29:42.513Z,0.00
2019-01-05T00:30:42.502Z,0.00
2019-01-05T00:31:42.492Z,0.00
2019-01-05T00:32:42.482Z,0.00
2019-01-05T00:33:43.063Z,0.00
2019-01-05T00:34:42.457Z,0.00
2019-01-05T00:35:42.447Z,0.00
2019-01-05T00:36:42.436Z,0.00
2019-01-05T00:37:42.426Z,0.00
2019-01-05T00:38:42.413Z,0.00
2019-01-05T00:39:42.405Z,0.00
2019-01-05T00:40:42.391Z,0.00
2019-01-05T00:41:42.384Z,0.00
2019-01-05T00:42:42.371Z,0.00
2019-01-05T00:43:42.362Z,0.00
2019-01-05T00:44:42.351Z,0.00
2019-01-05T00:45:42.337Z,0.00
2019-01-05T00:46:42.327Z,0.00
2019-01-05T00:47:42.314Z,0.00
2019-01-05T00:48:42.303Z,0.00
2019-01-05T00:49:42.295Z,0.00
2019-01-05T00:50:42.283Z,0.00
2019-01-05T00:51:42.270Z,0.00
2019-01-05T00:52:42.298Z,0.00
2019-01-05T00:53:42.248Z,0.00
2019-01-05T00:54:42.238Z,0.00
2019-01-05T00:55:42.226Z,0.00
2019-01-05T00:56:42.215Z,0.00
2019-01-05T00:57:42.206Z,0.00
2019-01-05T00:58:42.194Z,0.00
2019-01-05T00:59:42.186Z,0.00
2019-01-05T01:00:42.171Z,0.00
2019-01-05T01:01:42.163Z,0.00
2019-01-05T01:02:42.150Z,0.00
2019-01-05T01:03:42.142Z,0.00
2019-01-05T01:06:10.092Z,0.00
2019-01-05T01:07:28.194Z,0.00
2019-01-05T01:08:40.563Z,0.00
2019-01-05T01:09:40.512Z,0.00
2019-01-05T01:10:40.504Z,0.00
2019-01-05T01:11:40.496Z,0.00
2019-01-05T01:12:40.483Z,0.00
2019-01-05T01:13:40.470Z,0.00
2019-01-05T01:14:40.460Z,0.00
2019-01-05T01:15:40.448Z,0.00
2019-01-05T01:16:40.442Z,0.00
2019-01-05T01:17:40.426Z,0.00
2019-01-05T01:18:40.418Z,0.00
2019-01-05T01:19:40.406Z,0.00
2019-01-05T01:20:40.396Z,0.00
2019-01-05T01:21:40.383Z,0.00
2019-01-05T01:22:40.374Z,0.00
2019-01-05T01:23:40.382Z,0.00
2019-01-05T01:24:40.357Z,0.00
2019-01-05T01:25:40.338Z,0.00
2019-01-05T01:26:40.333Z,0.00
2019-01-05T01:27:40.317Z,0.00
2019-01-05T01:28:40.310Z,0.00
2019-01-05T01:29:40.305Z,0.00
2019-01-05T01:30:40.285Z,0.00
2019-01-05T01:31:40.274Z,0.00
2019-01-05T01:32:40.262Z,0.00
2019-01-05T01:33:40.257Z,0.00
2019-01-05T01:34:40.246Z,0.00
2019-01-05T01:35:40.229Z,0.00
2019-01-05T01:36:40.218Z,0.00
2019-01-05T01:37:40.209Z,0.00
2019-01-05T01:38:40.196Z,0.00
2019-01-05T01:39:40.184Z,0.00
2019-01-05T01:40:40.175Z,0.00
2019-01-05T01:41:40.164Z,0.00
2019-01-05T01:42:40.152Z,0.00
2019-01-05T01:43:40.144Z,0.00
2019-01-05T01:44:40.129Z,0.00
2019-01-05T01:45:40.119Z,0.00
2019-01-05T01:46:40.107Z,0.00
2019-01-05T01:47:40.097Z,0.00
2019-01-05T01:48:40.086Z,0.00
2019-01-05T01:49:40.077Z,0.00
2019-01-05T01:50:40.064Z,0.00
2019-01-05T01:51:40.055Z,0.00
2019-01-05T01:52:40.049Z,0.00
2019-01-05T01:53:40.032Z,0.00
2019-01-05T01:54:40.020Z,0.00
2019-01-05T01:55:40.009Z,0.00
2019-01-05T01:56:39.999Z,0.00
2019-01-05T01:57:39.990Z,0.00
2019-01-05T01:58:39.976Z,0.00
2019-01-05T01:59:39.968Z,0.00
2019-01-05T02:00:39.961Z,0.00
2019-01-05T02:01:39.944Z,0.00
2019-01-05T02:02:39.933Z,0.00
2019-01-05T02:03:39.921Z,0.00
2019-01-05T02:04:39.910Z,0.00
2019-01-05T02:05:39.899Z,0.00
2019-01-05T02:06:39.887Z,0.00
2019-01-05T02:07:39.877Z,0.00
2019-01-05T02:08:39.868Z,0.00
2019-01-05T02:09:39.855Z,0.00
2019-01-05T02:10:39.844Z,0.00
2019-01-05T02:11:39.833Z,0.00
2019-01-05T02:12:39.823Z,0.00
2019-01-05T02:13:39.810Z,0.00
2019-01-05T02:14:39.800Z,0.00
2019-01-05T02:15:39.789Z,0.00
2019-01-05T02:16:39.779Z,0.00
2019-01-05T02:17:39.767Z,0.00
2019-01-05T02:18:39.758Z,0.00
2019-01-05T02:19:39.747Z,0.00
2019-01-05T02:20:39.736Z,0.00
2019-01-05T02:21:39.726Z,0.00
2019-01-05T02:22:39.712Z,0.00
2019-01-05T02:23:39.701Z,0.00
2019-01-05T02:24:39.689Z,0.00
2019-01-05T02:25:39.679Z,0.00
2019-01-05T02:26:39.670Z,0.00
2019-01-05T02:27:39.657Z,0.00
2019-01-05T02:28:39.646Z,0.00
2019-01-05T02:29:39.637Z,0.00
2019-01-05T02:30:39.628Z,0.00
2019-01-05T02:31:39.612Z,0.00
2019-01-05T02:32:39.603Z,0.00
2019-01-05T02:33:39.593Z,0.00
2019-01-05T02:34:39.579Z,0.00
2019-01-05T02:35:39.575Z,0.00
2019-01-05T02:36:39.557Z,0.00
2019-01-05T02:37:39.548Z,0.00
2019-01-05T02:38:39.546Z,0.00
2019-01-05T02:39:39.526Z,0.00
2019-01-05T02:40:39.517Z,0.00
2019-01-05T02:41:39.504Z,0.00
2019-01-05T02:42:39.494Z,0.00
2019-01-05T02:43:39.483Z,0.00
2019-01-05T02:44:39.472Z,0.00
2019-01-05T02:45:39.458Z,0.00
2019-01-05T02:46:39.449Z,0.00
2019-01-05T02:47:39.446Z,0.00
2019-01-05T02:48:39.426Z,0.00
2019-01-05T02:49:39.414Z,0.00
2019-01-05T02:50:39.406Z,0.00
2019-01-05T02:51:39.392Z,0.00
2019-01-05T02:52:39.381Z,0.00
2019-01-05T02:53:39.371Z,0.00
2019-01-05T02:54:39.361Z,0.00
2019-01-05T02:55:39.348Z,0.00
2019-01-05T02:56:39.338Z,0.00
2019-01-05T02:57:39.346Z,0.00
2019-01-05T02:58:39.319Z,0.00
2019-01-05T02:59:39.304Z,0.00
2019-01-05T03:00:39.295Z,0.00
2019-01-05T03:01:39.300Z,0.00
2019-01-05T03:02:39.271Z,0.00
2019-01-05T03:03:39.263Z,0.00
2019-01-05T03:04:39.252Z,0.00
2019-01-05T03:05:39.238Z,0.00
2019-01-05T03:06:39.232Z,0.00
2019-01-05T03:07:39.217Z,0.00
2019-01-05T03:08:39.206Z,0.00
2019-01-05T03:09:39.194Z,0.00
2019-01-05T03:10:39.194Z,0.00
2019-01-05T03:11:39.175Z,0.00
2019-01-05T03:12:39.162Z,0.00
2019-01-05T03:13:39.152Z,0.00
2019-01-05T03:14:39.140Z,0.00
2019-01-05T03:15:39.129Z,0.00
2019-01-05T03:16:39.117Z,0.00
2019-01-05T03:17:39.112Z,0.00
2019-01-05T03:18:39.096Z,0.00
2019-01-05T03:19:39.085Z,0.00
2019-01-05T03:20:39.073Z,0.00
2019-01-05T03:21:39.062Z,0.00
2019-01-05T03:22:39.058Z,0.00
2019-01-05T03:23:39.041Z,0.00
2019-01-05T03:24:39.030Z,0.00
2019-01-05T03:25:39.025Z,0.00
2019-01-05T03:26:39.008Z,0.00
2019-01-05T03:27:38.996Z,0.00
2019-01-05T03:28:38.988Z,0.00
2019-01-05T03:29:38.975Z,0.00
2019-01-05T03:30:38.984Z,0.00
2019-01-05T03:31:38.954Z,0.00
2019-01-05T03:32:38.943Z,0.00
2019-01-05T03:33:38.931Z,0.00
2019-01-05T03:34:38.920Z,0.00
2019-01-05T03:35:38.910Z,0.00
2019-01-05T03:36:38.899Z,0.00
2019-01-05T03:37:38.888Z,0.00
2019-01-05T03:38:38.876Z,0.00
2019-01-05T03:39:38.865Z,0.00
2019-01-05T03:40:38.857Z,0.00
2019-01-05T03:41:38.843Z,0.00
2019-01-05T03:42:38.832Z,0.00
2019-01-05T03:43:38.822Z,0.00
2019-01-05T03:44:38.809Z,0.00
2019-01-05T03:45:38.800Z,0.00
2019-01-05T03:46:38.788Z,0.00
2019-01-05T03:47:38.778Z,0.00
2019-01-05T03:48:38.765Z,0.00
2019-01-05T03:49:38.755Z,0.00
2019-01-05T03:50:38.748Z,0.00
2019-01-05T03:51:38.732Z,0.00
2019-01-05T03:52:38.721Z,0.00
2019-01-05T03:53:38.720Z,0.00
2019-01-05T03:54:38.700Z,0.00
2019-01-05T03:55:38.689Z,0.00
2019-01-05T03:56:38.754Z,0.00
2019-01-05T03:57:38.666Z,0.00
2019-01-05T03:58:38.658Z,0.00
2019-01-05T03:59:38.646Z,0.00
2019-01-05T04:00:38.645Z,0.00
2019-01-05T04:01:38.624Z,0.00
2019-01-05T04:02:38.611Z,0.00
2019-01-05T04:03:38.602Z,0.00
2019-01-05T04:04:38.588Z,0.00
2019-01-05T04:05:38.578Z,0.00
2019-01-05T04:06:38.568Z,0.00
2019-01-05T04:07:38.557Z,0.00
2019-01-05T04:08:38.548Z,0.00
2019-01-05T04:09:38.534Z,0.00
2019-01-05T04:10:38.526Z,0.00
2019-01-05T04:11:38.512Z,0.00
2019-01-05T04:12:38.502Z,0.00
2019-01-05T04:13:38.492Z,0.00
2019-01-05T04:14:38.483Z,0.00
2019-01-05T04:15:38.468Z,0.00
2019-01-05T04:16:38.457Z,0.00
2019-01-05T04:17:38.449Z,0.00
2019-01-05T04:18:38.435Z,0.00
2019-01-05T04:19:38.425Z,0.00
2019-01-05T04:20:38.413Z,0.00
2019-01-05T04:21:38.402Z,0.00
2019-01-05T04:22:38.392Z,0.00
2019-01-05T04:23:38.381Z,0.00
2019-01-05T04:24:38.369Z,0.00
2019-01-05T04:25:38.361Z,0.00
2019-01-05T04:26:38.347Z,0.00
2019-01-05T04:27:38.336Z,0.00
2019-01-05T04:28:38.324Z,0.00
2019-01-05T04:29:38.313Z,0.00
2019-01-05T04:30:38.303Z,0.00
2019-01-05T04:31:38.294Z,0.00
2019-01-05T04:32:38.280Z,0.00
2019-01-05T04:33:38.270Z,0.00
2019-01-05T04:34:38.260Z,0.00
2019-01-05T04:35:38.251Z,0.00
2019-01-05T04:36:38.237Z,0.00
2019-01-05T04:37:38.225Z,0.00
2019-01-05T04:38:38.214Z,0.00
2019-01-05T04:39:38.206Z,0.00
2019-01-05T04:40:38.193Z,0.00
2019-01-05T04:41:38.180Z,0.00
2019-01-05T04:42:38.169Z,0.00
2019-01-05T04:43:38.158Z,0.00
2019-01-05T04:44:38.151Z,0.00
2019-01-05T04:45:38.143Z,0.00
2019-01-05T04:46:38.126Z,0.00
2019-01-05T04:47:38.115Z,0.00
2019-01-05T04:48:38.104Z,0.00
2019-01-05T04:49:38.102Z,0.00
2019-01-05T04:50:38.082Z,0.00
2019-01-05T04:51:38.070Z,0.00
2019-01-05T04:52:38.064Z,0.00
2019-01-05T04:53:38.051Z,0.00
2019-01-05T04:54:38.040Z,0.00
2019-01-05T04:55:38.027Z,0.00
2019-01-05T04:56:38.034Z,0.00
2019-01-05T04:57:38.019Z,0.00
2019-01-05T04:58:38.005Z,0.00
2019-01-05T04:59:37.983Z,0.00
2019-01-05T05:00:37.972Z,0.00
2019-01-05T05:01:37.961Z,0.00
2019-01-05T05:02:37.953Z,0.00
2019-01-05T05:03:37.938Z,0.00
2019-01-05T05:04:37.928Z,0.00
2019-01-05T05:05:37.922Z,0.00
2019-01-05T05:06:37.906Z,0.00
2019-01-05T05:07:37.895Z,0.00
2019-01-05T05:08:37.883Z,0.00
2019-01-05T05:09:37.873Z,0.00
2019-01-05T05:10:37.860Z,0.00
2019-01-05T05:11:37.852Z,0.00
2019-01-05T05:12:37.838Z,0.00
2019-01-05T05:13:37.829Z,0.00
2019-01-05T05:14:37.816Z,0.00
2019-01-05T05:15:37.807Z,0.00
2019-01-05T05:16:37.795Z,0.00
2019-01-05T05:17:37.785Z,0.00
2019-01-05T05:18:37.772Z,0.00
2019-01-05T05:19:37.762Z,0.00
2019-01-05T05:20:37.750Z,0.00
2019-01-05T05:21:37.741Z,0.00
2019-01-05T05:22:37.728Z,0.00
2019-01-05T05:23:37.718Z,0.00
2019-01-05T05:24:37.707Z,0.00
2019-01-05T05:25:37.695Z,0.00
2019-01-05T05:26:37.699Z,0.00
2019-01-05T05:27:37.672Z,0.00
2019-01-05T05:28:37.662Z,0.00
2019-01-05T05:29:37.655Z,0.00
2019-01-05T05:30:37.643Z,0.00
2019-01-05T05:31:37.631Z,0.00
2019-01-05T05:32:37.618Z,0.00
2019-01-05T05:33:37.607Z,0.00
2019-01-05T05:34:37.597Z,0.00
2019-01-05T05:35:37.584Z,0.00
2019-01-05T05:36:37.574Z,0.00
2019-01-05T05:37:37.566Z,0.00
2019-01-05T05:38:37.552Z,0.00
2019-01-05T05:39:37.540Z,0.00
2019-01-05T05:40:37.531Z,0.00
2019-01-05T05:41:37.519Z,0.00
2019-01-05T05:42:37.510Z,0.00
2019-01-05T05:43:37.499Z,0.00
2019-01-05T05:44:37.486Z,0.00
2019-01-05T05:45:37.476Z,0.00
2019-01-05T05:46:37.462Z,0.00
2019-01-05T05:47:37.457Z,0.00
2019-01-05T05:48:37.443Z,0.00
2019-01-05T05:49:37.431Z,0.00
2019-01-05T05:50:37.420Z,0.00
2019-01-05T05:51:37.410Z,0.00
2019-01-05T05:52:37.397Z,0.00
2019-01-05T05:53:37.387Z,0.00
2019-01-05T05:54:37.375Z,0.00
2019-01-05T05:55:37.366Z,0.00
2019-01-05T05:56:37.353Z,0.00
2019-01-05T05:57:37.341Z,0.00
2019-01-05T05:58:37.331Z,0.00
2019-01-05T05:59:37.320Z,0.00
2019-01-05T06:00:37.309Z,0.00
2019-01-05T06:01:37.297Z,0.00
2019-01-05T06:02:37.286Z,0.00
2019-01-05T06:03:37.276Z,0.00
2019-01-05T06:04:37.266Z,0.00
2019-01-05T06:05:37.254Z,0.00
2019-01-05T06:06:37.241Z,0.00
2019-01-05T06:07:37.231Z,0.00
2019-01-05T06:08:37.220Z,0.00
2019-01-05T06:09:37.208Z,0.00
2019-01-05T06:10:37.200Z,0.00
2019-01-05T06:11:37.187Z,0.00
2019-01-05T06:12:37.177Z,0.00
2019-01-05T06:13:37.165Z,0.00
2019-01-05T06:14:37.154Z,0.00
2019-01-05T06:15:37.143Z,0.00
2019-01-05T06:16:37.132Z,0.00
2019-01-05T06:17:37.126Z,0.00
2019-01-05T06:18:37.111Z,0.00
2019-01-05T06:19:37.098Z,0.00
2019-01-05T06:20:37.087Z,0.00
2019-01-05T06:21:37.078Z,0.00
2019-01-05T06:22:37.065Z,0.00
2019-01-05T06:23:37.056Z,0.00
2019-01-05T06:24:37.044Z,0.00
2019-01-05T06:25:37.035Z,0.00
2019-01-05T06:26:37.024Z,0.00
2019-01-05T06:27:37.010Z,0.00
2019-01-05T06:28:37.004Z,0.00
2019-01-05T06:29:36.989Z,0.00
2019-01-05T06:30:36.978Z,0.00
2019-01-05T06:31:36.967Z,0.00
2019-01-05T06:32:36.955Z,0.00
2019-01-05T06:33:36.947Z,0.00
2019-01-05T06:34:36.935Z,0.00
2019-01-05T06:35:36.923Z,0.00
2019-01-05T06:36:36.915Z,0.00
2019-01-05T06:37:36.899Z,0.00
2019-01-05T06:38:36.889Z,0.00
2019-01-05T06:39:36.879Z,0.00
2019-01-05T06:40:36.868Z,0.00
2019-01-05T06:41:36.857Z,0.00
2019-01-05T06:42:36.847Z,0.00
2019-01-05T06:43:36.834Z,0.00
2019-01-05T06:44:36.822Z,0.00
2019-01-05T06:45:36.812Z,0.00
2019-01-05T06:46:36.802Z,0.00
2019-01-05T06:47:36.790Z,0.00
2019-01-05T06:48:36.778Z,0.00
2019-01-05T06:49:36.772Z,0.00
2019-01-05T06:50:36.756Z,4.00
2019-01-05T06:51:36.746Z,4.00
2019-01-05T06:52:36.734Z,4.00
2019-01-05T06:53:36.723Z,4.00
2019-01-05T06:54:36.715Z,4.00
2019-01-05T06:55:36.702Z,0.00
2019-01-05T06:56:36.691Z,0.00
2019-01-05T06:57:36.680Z,0.00
2019-01-05T06:58:36.670Z,4.00
2019-01-05T06:59:36.658Z,4.00
2019-01-05T07:00:36.650Z,4.00
2019-01-05T07:01:36.636Z,4.00
2019-01-05T07:02:36.625Z,8.00
2019-01-05T07:03:36.614Z,8.00
2019-01-05T07:04:36.603Z,8.00
2019-01-05T07:05:36.590Z,8.00
2019-01-05T07:06:36.580Z,12.00
2019-01-05T07:07:36.575Z,8.00
2019-01-05T07:08:36.558Z,12.00
2019-01-05T07:09:36.547Z,12.00
2019-01-05T07:10:36.536Z,16.00
2019-01-05T07:11:36.525Z,12.00
2019-01-05T07:12:36.513Z,16.00
2019-01-05T07:13:36.502Z,24.00
2019-01-05T07:14:36.493Z,20.00
2019-01-05T07:15:36.481Z,24.00
2019-01-05T07:16:36.475Z,28.00
2019-01-05T07:17:36.459Z,28.00
2019-01-05T07:18:36.449Z,28.00
2019-01-05T07:19:36.436Z,32.00
2019-01-05T07:20:36.427Z,40.00
2019-01-05T07:21:36.413Z,52.00
2019-01-05T07:22:36.402Z,48.00
2019-01-05T07:23:36.394Z,44.00
2019-01-05T07:24:36.381Z,40.00
2019-01-05T07:25:36.369Z,52.00
2019-01-05T07:26:36.359Z,64.00
2019-01-05T07:27:36.363Z,56.00
2019-01-05T07:28:36.337Z,52.00
2019-01-05T07:29:36.325Z,60.00
2019-01-05T07:30:36.318Z,52.00
2019-01-05T07:31:36.304Z,72.00
2019-01-05T07:32:36.293Z,68.00
2019-01-05T07:33:36.281Z,80.00
2019-01-05T07:34:36.271Z,76.00
2019-01-05T07:35:36.259Z,60.00
2019-01-05T07:36:36.248Z,68.00
2019-01-05T07:37:36.249Z,64.00
2019-01-05T07:38:36.225Z,72.00
2019-01-05T07:39:36.216Z,68.00
2019-01-05T07:40:36.203Z,80.00
2019-01-05T07:41:36.192Z,80.00
2019-01-05T07:42:36.181Z,96.00
2019-01-05T07:43:36.169Z,80.00
2019-01-05T07:44:36.159Z,92.00
2019-01-05T07:45:36.148Z,100.00
2019-01-05T07:46:36.137Z,92.00
2019-01-05T07:47:36.126Z,84.00
2019-01-05T07:48:36.117Z,96.00
2019-01-05T07:49:36.103Z,100.00
2019-01-05T07:50:36.095Z,120.00
2019-01-05T07:51:36.083Z,128.00
2019-01-05T07:52:36.071Z,124.00
2019-01-05T07:53:36.060Z,124.00
2019-01-05T07:54:36.049Z,168.00
2019-01-05T07:55:37.150Z,124.00
2019-01-05T07:56:36.032Z,136.00
2019-01-05T07:57:36.018Z,120.00
2019-01-05T07:58:36.007Z,132.00
2019-01-05T07:59:35.992Z,156.00
2019-01-05T08:00:35.981Z,140.00
2019-01-05T08:01:35.972Z,172.00
2019-01-05T08:02:35.962Z,132.00
2019-01-05T08:03:35.950Z,160.00
2019-01-05T08:04:35.938Z,176.00
2019-01-05T08:05:35.927Z,296.00
2019-01-05T08:06:35.928Z,300.00
2019-01-05T08:07:35.904Z,260.00
2019-01-05T08:08:35.898Z,256.00
2019-01-05T08:09:35.884Z,304.00
2019-01-05T08:10:35.871Z,300.00
2019-01-05T08:11:35.862Z,300.00
2019-01-05T08:12:35.850Z,400.00
2019-01-05T08:13:35.838Z,448.00
2019-01-05T08:14:35.830Z,584.00
2019-01-05T08:15:35.816Z,724.00
2019-01-05T08:16:35.807Z,1000.00
2019-01-05T08:17:35.795Z,1008.00
2019-01-05T08:18:35.785Z,916.00
2019-01-05T08:19:35.775Z,1252.00
2019-01-05T08:20:35.761Z,856.00
2019-01-05T08:21:35.749Z,1096.00
2019-01-05T08:22:35.738Z,1440.00
2019-01-05T08:23:35.761Z,1316.00
2019-01-05T08:24:35.717Z,1556.00
2019-01-05T08:25:35.705Z,1708.00
2019-01-05T08:26:35.694Z,1232.00
2019-01-05T08:27:35.688Z,1180.00
2019-01-05T08:28:35.673Z,1416.00
2019-01-05T08:29:35.663Z,1864.00
2019-01-05T08:30:35.651Z,1704.00
2019-01-05T08:31:35.639Z,1796.00
2019-01-05T08:32:35.628Z,1744.00
2019-01-05T08:33:35.618Z,1664.00
2019-01-05T08:34:35.606Z,1188.00
2019-01-05T08:35:35.597Z,1524.00
2019-01-05T08:36:35.583Z,1768.00
2019-01-05T08:37:35.574Z,2024.00
2019-01-05T08:38:35.561Z,1592.00
2019-01-05T08:39:35.551Z,1424.00
2019-01-05T08:40:35.541Z,1576.00
2019-01-05T08:41:35.528Z,1564.00
2019-01-05T08:42:35.521Z,1676.00
2019-01-05T08:43:35.507Z,1564.00
2019-01-05T08:44:35.496Z,1628.00
2019-01-05T08:45:35.486Z,2140.00
2019-01-05T08:46:35.473Z,1844.00
2019-01-05T08:47:35.465Z,1820.00
2019-01-05T08:48:35.451Z,1724.00
2019-01-05T08:49:35.439Z,1712.00
2019-01-05T08:50:35.428Z,1564.00
2019-01-05T08:51:35.419Z,1944.00
2019-01-05T08:52:35.406Z,2116.00
2019-01-05T08:53:35.397Z,2220.00
2019-01-05T08:54:35.385Z,2324.00
2019-01-05T08:55:35.374Z,1840.00
2019-01-05T08:56:35.363Z,2580.00
2019-01-05T08:57:35.352Z,2600.00
2019-01-05T08:58:35.343Z,2380.00
2019-01-05T08:59:35.332Z,1852.00
2019-01-05T09:00:35.318Z,2164.00
2019-01-05T09:01:35.306Z,2224.00
2019-01-05T09:02:35.345Z,1928.00
2019-01-05T09:03:35.285Z,2348.00
2019-01-05T09:04:35.274Z,2448.00
2019-01-05T09:05:35.262Z,2492.00
2019-01-05T09:06:35.251Z,2348.00
2019-01-05T09:07:35.240Z,2100.00
2019-01-05T09:08:35.230Z,2264.00
2019-01-05T09:09:35.218Z,1948.00
2019-01-05T09:10:35.208Z,1924.00
2019-01-05T09:11:35.196Z,2084.00
2019-01-05T09:12:35.188Z,1760.00
2019-01-05T09:13:35.174Z,1508.00
2019-01-05T09:14:35.165Z,1744.00
2019-01-05T09:15:35.152Z,2008.00
2019-01-05T09:16:35.144Z,2560.00
2019-01-05T09:17:35.130Z,3372.00
2019-01-05T09:18:35.118Z,3956.00
2019-01-05T09:19:35.108Z,4864.00
2019-01-05T09:20:35.098Z,4080.00
2019-01-05T09:21:35.089Z,3732.00
2019-01-05T09:22:35.076Z,3512.00
2019-01-05T09:23:35.068Z,2836.00
2019-01-05T09:24:35.052Z,2236.00
2019-01-05T09:25:35.043Z,3080.00
2019-01-05T09:26:35.030Z,2528.00
2019-01-05T09:27:35.020Z,1972.00
2019-01-05T09:28:35.011Z,1932.00
2019-01-05T09:29:34.997Z,2696.00
2019-01-05T09:30:34.985Z,3332.00
2019-01-05T09:31:34.976Z,2428.00
2019-01-05T09:32:34.966Z,1668.00
2019-01-05T09:33:34.957Z,1652.00
2019-01-05T09:34:34.943Z,1900.00
2019-01-05T09:35:34.931Z,1844.00
2019-01-05T09:36:34.919Z,2184.00
2019-01-05T09:37:36.382Z,3224.00
2019-01-05T09:38:34.897Z,3412.00
2019-01-05T09:39:34.887Z,3324.00
2019-01-05T09:40:34.877Z,4116.00
2019-01-05T09:41:34.868Z,3424.00
2019-01-05T09:42:34.853Z,2696.00
2019-01-05T09:43:34.842Z,2656.00
2019-01-05T09:44:34.831Z,2596.00
2019-01-05T09:45:34.820Z,2336.00
2019-01-05T09:46:34.808Z,3368.00
2019-01-05T09:47:34.797Z,3524.00
2019-01-05T09:48:34.789Z,3860.00
2019-01-05T09:49:34.776Z,4912.00
2019-01-05T09:50:34.767Z,4504.00
2019-01-05T09:51:34.754Z,5168.00
2019-01-05T09:52:34.744Z,2572.00
2019-01-05T09:53:34.731Z,2192.00
2019-01-05T09:54:34.720Z,1576.00
2019-01-05T09:55:34.712Z,1348.00
2019-01-05T09:56:34.699Z,2028.00
2019-01-05T09:57:34.688Z,3372.00
2019-01-05T09:58:34.676Z,2136.00
2019-01-05T09:59:34.667Z,3148.00
2019-01-05T10:00:34.655Z,1996.00
2019-01-05T10:01:34.642Z,1988.00
2019-01-05T10:02:34.632Z,2116.00
2019-01-05T10:03:34.622Z,2016.00
2019-01-05T10:04:34.610Z,2872.00
2019-01-05T10:05:34.599Z,2668.00
2019-01-05T10:06:34.596Z,3688.00
2019-01-05T10:07:34.580Z,3216.00
2019-01-05T10:08:34.568Z,2220.00
2019-01-05T10:09:34.555Z,4500.00
2019-01-05T10:10:34.543Z,4852.00
2019-01-05T10:11:34.532Z,3576.00
2019-01-05T10:12:34.524Z,4544.00
2019-01-05T10:13:34.511Z,3272.00
2019-01-05T10:14:34.502Z,4336.00
2019-01-05T10:15:34.489Z,2712.00
2019-01-05T10:16:34.477Z,3336.00
2019-01-05T10:17:34.466Z,5624.00
2019-01-05T10:18:34.455Z,3516.00
2019-01-05T10:19:34.446Z,2240.00
2019-01-05T10:20:34.434Z,2604.00
2019-01-05T10:21:34.422Z,5432.00
2019-01-05T10:22:34.412Z,1996.00
2019-01-05T10:23:34.400Z,2036.00
2019-01-05T10:24:34.390Z,2936.00
2019-01-05T10:25:34.382Z,4764.00
2019-01-05T10:26:34.367Z,5344.00
2019-01-05T10:27:34.358Z,7760.00
2019-01-05T10:28:34.345Z,4228.00
2019-01-05T10:29:34.334Z,5948.00
2019-01-05T10:30:34.324Z,3352.00
2019-01-05T10:31:34.311Z,3588.00
2019-01-05T10:32:34.301Z,4004.00
2019-01-05T10:33:34.292Z,4200.00
2019-01-05T10:34:34.279Z,2912.00
2019-01-05T10:35:34.266Z,2940.00
2019-01-05T10:36:34.257Z,3632.00
2019-01-05T10:37:34.245Z,3716.00
2019-01-05T10:38:34.235Z,4412.00
2019-01-05T10:39:34.223Z,4596.00
2019-01-05T10:40:34.212Z,3816.00
2019-01-05T10:41:34.202Z,3512.00
2019-01-05T10:42:34.191Z,3332.00
2019-01-05T10:43:34.191Z,2600.00
2019-01-05T10:44:34.169Z,1924.00
2019-01-05T10:45:34.160Z,2744.00
2019-01-05T10:46:34.146Z,3372.00
2019-01-05T10:47:34.136Z,3440.00
2019-01-05T10:48:34.125Z,2988.00
2019-01-05T10:49:34.113Z,2184.00
2019-01-05T10:50:34.101Z,1864.00
2019-01-05T10:51:34.095Z,2836.00
2019-01-05T10:52:34.079Z,2652.00
2019-01-05T10:53:34.069Z,3112.00
2019-01-05T10:54:34.057Z,1948.00
2019-01-05T10:55:34.074Z,1972.00
2019-01-05T10:56:34.035Z,2736.00
2019-01-05T10:57:34.025Z,2588.00
2019-01-05T10:58:34.014Z,3012.00
2019-01-05T10:59:34.002Z,3184.00
2019-01-05T11:00:33.995Z,2664.00
2019-01-05T11:01:33.983Z,2320.00
2019-01-05T11:02:33.989Z,1996.00
2019-01-05T11:03:33.960Z,2164.00
2019-01-05T11:04:33.950Z,2120.00
2019-01-05T11:05:33.939Z,2108.00
2019-01-05T11:06:33.924Z,2196.00
2019-01-05T11:07:33.922Z,1820.00
2019-01-05T11:08:33.907Z,1656.00
2019-01-05T11:09:33.891Z,1200.00
2019-01-05T11:10:33.913Z,1112.00
2019-01-05T11:11:33.871Z,1072.00
2019-01-05T11:12:33.862Z,1868.00
2019-01-05T11:13:33.846Z,1696.00
2019-01-05T11:14:33.837Z,1816.00
2019-01-05T11:15:33.826Z,2320.00
2019-01-05T11:16:33.813Z,2288.00
2019-01-05T11:17:33.805Z,2224.00
2019-01-05T11:18:33.794Z,1300.00
2019-01-05T11:19:33.785Z,1276.00
2019-01-05T11:20:35.899Z,1768.00
2019-01-05T11:21:33.763Z,2240.00
2019-01-05T11:22:33.747Z,2120.00
2019-01-05T11:23:33.737Z,1532.00
2019-01-05T11:24:33.725Z,1412.00
2019-01-05T11:25:33.714Z,2044.00
2019-01-05T11:26:33.703Z,2628.00
2019-01-05T11:27:33.697Z,3624.00
2019-01-05T11:28:33.682Z,2776.00
2019-01-05T11:29:33.670Z,3040.00
2019-01-05T11:30:33.660Z,3736.00
2019-01-05T11:31:33.654Z,3988.00
2019-01-05T11:32:33.637Z,4512.00
2019-01-05T11:33:33.626Z,4596.00
2019-01-05T11:34:33.614Z,2752.00
2019-01-05T11:35:33.603Z,3400.00
2019-01-05T11:36:33.592Z,3060.00
2019-01-05T11:37:33.582Z,2772.00
2019-01-05T11:38:33.572Z,1852.00
2019-01-05T11:39:33.562Z,1796.00
2019-01-05T11:40:33.548Z,2736.00
2019-01-05T11:41:33.537Z,2680.00
2019-01-05T11:42:33.532Z,3280.00
2019-01-05T11:43:33.519Z,3612.00
2019-01-05T11:44:33.504Z,2736.00
2019-01-05T11:45:33.495Z,2856.00
2019-01-05T11:46:33.482Z,3180.00
2019-01-05T11:47:33.485Z,3400.00
2019-01-05T11:48:33.465Z,2356.00
2019-01-05T11:49:33.460Z,2008.00
2019-01-05T11:50:33.450Z,1976.00
2019-01-05T11:51:33.444Z,2360.00
2019-01-05T11:52:33.415Z,3140.00
2019-01-05T11:53:33.415Z,2604.00
2019-01-05T11:54:33.396Z,2428.00
2019-01-05T11:55:33.396Z,2436.00
2019-01-05T11:56:33.383Z,2128.00
2019-01-05T11:57:33.367Z,2692.00
2019-01-05T11:58:33.350Z,3052.00
2019-01-05T11:59:33.342Z,2508.00
2019-01-05T12:00:33.327Z,2832.00
2019-01-05T12:01:33.327Z,3092.00
2019-01-05T12:02:33.311Z,3112.00
2019-01-05T12:03:33.294Z,3200.00
2019-01-05T12:04:33.282Z,2888.00
2019-01-05T12:05:33.275Z,2876.00
2019-01-05T12:06:33.273Z,2292.00
2019-01-05T12:07:33.249Z,2292.00
2019-01-05T12:08:33.246Z,2624.00
2019-01-05T12:09:33.227Z,3060.00
2019-01-05T12:10:33.221Z,3296.00
2019-01-05T12:11:33.221Z,3396.00
2019-01-05T12:12:33.193Z,3020.00
2019-01-05T12:13:33.185Z,2264.00
2019-01-05T12:14:33.172Z,2068.00
2019-01-05T12:15:33.163Z,1496.00
2019-01-05T12:16:33.149Z,1832.00
2019-01-05T12:17:33.140Z,1476.00
2019-01-05T12:18:33.126Z,1436.00
2019-01-05T12:19:33.115Z,1564.00
2019-01-05T12:20:33.106Z,1780.00
2019-01-05T12:21:33.097Z,1864.00
2019-01-05T12:22:33.085Z,1808.00
2019-01-05T12:23:33.074Z,2608.00
2019-01-05T12:24:33.060Z,2524.00
2019-01-05T12:25:33.050Z,2276.00
2019-01-05T12:26:33.038Z,1840.00
2019-01-05T12:27:33.028Z,1492.00
2019-01-05T12:28:33.056Z,1116.00
2019-01-05T12:29:33.005Z,1060.00
2019-01-05T12:30:32.994Z,1100.00
2019-01-05T12:31:32.984Z,1208.00
2019-01-05T12:32:32.974Z,1040.00
2019-01-05T12:33:32.965Z,1200.00
2019-01-05T12:34:32.953Z,964.00
2019-01-05T12:35:32.940Z,900.00
2019-01-05T12:36:32.930Z,920.00
2019-01-05T12:37:32.918Z,876.00
2019-01-05T12:38:32.908Z,848.00
2019-01-05T12:39:32.900Z,1096.00
2019-01-05T12:40:32.883Z,1392.00
2019-01-05T12:41:32.873Z,1248.00
2019-01-05T12:42:32.868Z,1164.00
2019-01-05T12:43:32.850Z,1128.00
2019-01-05T12:44:32.842Z,1048.00
2019-01-05T12:45:32.828Z,868.00
2019-01-05T12:46:32.821Z,808.00
2019-01-05T12:47:32.806Z,872.00
2019-01-05T12:48:32.796Z,972.00
2019-01-05T12:49:32.786Z,1000.00
2019-01-05T12:50:32.775Z,956.00